Time;durP1;ratioP1;P1;durP2;ratioP2;P2;SDS_P1;SDS_P2;PMS_P1;PMS_P2;Temp;Humidity;BMP_temperature;BMP_pressure;BME280_temperature;BME280_humidity;BME280_pressure;Samples;Min_cycle;Max_cycle;Signal;HPM_P1;HPM_P2
2023/04/06 00:00:09;;;;;;;10.97;8.80;;;;;;;;;;4367524;32;317091;-82
2023/04/06 00:02:36;;;;;;;12.47;9.23;;;;;;;;;;4358003;32;330459;-81
2023/04/06 00:05:02;;;;;;;12.90;9.80;;;;;;;;;;4370048;32;318111;-80
2023/04/06 00:07:29;;;;;;;10.67;9.47;;;;;;;;;;4359922;32;317404;-80
2023/04/06 00:09:56;;;;;;;9.90;8.90;;;;;;;;;;4378853;32;317226;-80
2023/04/06 00:12:23;;;;;;;10.63;8.23;;;;;;;;;;4380479;32;315652;-81
2023/04/06 00:14:51;;;;;;;9.70;8.30;;;;;;;;;;4383889;32;317136;-80
2023/04/06 00:17:18;;;;;;;10.80;8.63;;;;;;;;;;4383788;32;316297;-80
2023/04/06 00:19:45;;;;;;;9.20;8.27;;;;;;;;;;4374021;32;317339;-80
2023/04/06 00:22:12;;;;;;;9.00;8.10;;;;;;;;;;4383600;32;315990;-82
2023/04/06 00:24:39;;;;;;;10.60;7.70;;;;;;;;;;4362706;32;315481;-80
2023/04/06 00:27:05;;;;;;;9.30;8.17;;;;;;;;;;4369645;32;316961;-83
2023/04/06 00:29:32;;;;;;;10.37;9.33;;;;;;;;;;4360136;32;316202;-80
2023/04/06 00:32:00;;;;;;;9.17;7.83;;;;;;;;;;4358015;32;317276;-80
2023/04/06 00:34:27;;;;;;;8.83;7.70;;;;;;;;;;4360007;32;316137;-82
2023/04/06 00:36:54;;;;;;;9.27;8.27;;;;;;;;;;4369451;32;316432;-80
2023/04/06 00:39:21;;;;;;;9.03;7.93;;;;;;;;;;4368689;32;316439;-81
2023/04/06 00:41:52;;;;;;;9.20;7.93;;;;;;;;;;4355719;32;418161;-81
2023/04/06 00:44:19;;;;;;;12.03;8.63;;;;;;;;;;4369833;32;315420;-82
2023/04/06 00:46:46;;;;;;;9.50;8.20;;;;;;;;;;4358817;32;317385;-80
2023/04/06 00:49:15;;;;;;;12.03;8.50;;;;;;;;;;4367919;32;322773;-80
2023/04/06 00:51:41;;;;;;;13.47;8.77;;;;;;;;;;4359695;32;317177;-81
2023/04/06 00:54:08;;;;;;;9.67;7.80;;;;;;;;;;4369021;32;317066;-80
2023/04/06 00:56:36;;;;;;;10.70;8.80;;;;;;;;;;4359355;32;316405;-80
2023/04/06 00:59:03;;;;;;;9.33;8.37;;;;;;;;;;4361431;32;317091;-81
2023/04/06 01:01:32;;;;;;;14.23;11.03;;;;;;;;;;4344639;32;316473;-80
2023/04/06 01:03:59;;;;;;;12.17;9.93;;;;;;;;;;4353957;32;318113;-81
2023/04/06 01:06:27;;;;;;;14.63;10.33;;;;;;;;;;4342143;32;321717;-82
2023/04/06 01:08:54;;;;;;;15.90;10.87;;;;;;;;;;4348593;32;317606;-84
2023/04/06 01:11:21;;;;;;;12.30;10.57;;;;;;;;;;4367714;32;318471;-80
2023/04/06 01:13:49;;;;;;;12.67;11.33;;;;;;;;;;4359250;32;318390;-81
2023/04/06 01:16:16;;;;;;;15.83;12.37;;;;;;;;;;4368004;32;318328;-82
2023/04/06 01:18:43;;;;;;;16.10;12.03;;;;;;;;;;4357261;32;318395;-80
2023/04/06 01:21:15;;;;;;;16.70;12.97;;;;;;;;;;4368666;32;318423;-80
2023/04/06 01:23:44;;;;;;;25.40;15.77;;;;;;;;;;4358608;32;317793;-80
2023/04/06 01:26:11;;;;;;;22.47;14.50;;;;;;;;;;4368534;32;318044;-80
2023/04/06 01:28:38;;;;;;;18.03;14.13;;;;;;;;;;4352254;32;318133;-81
2023/04/06 01:31:05;;;;;;;22.33;15.83;;;;;;;;;;4352294;32;317779;-80
2023/04/06 01:33:32;;;;;;;26.00;17.23;;;;;;;;;;4342947;32;318426;-80
2023/04/06 01:35:59;;;;;;;22.83;16.93;;;;;;;;;;4357333;32;344907;-80
2023/04/06 01:38:26;;;;;;;27.53;16.33;;;;;;;;;;4357464;32;318060;-82
2023/04/06 01:40:55;;;;;;;19.50;14.13;;;;;;;;;;4367448;32;318348;-81
2023/04/06 01:43:21;;;;;;;26.77;15.90;;;;;;;;;;4369003;32;317824;-82
2023/04/06 01:45:48;;;;;;;22.17;15.53;;;;;;;;;;4355761;32;417484;-83
2023/04/06 01:48:15;;;;;;;24.40;15.93;;;;;;;;;;4371039;32;318240;-80
2023/04/06 01:50:42;;;;;;;26.37;17.60;;;;;;;;;;4358657;32;323160;-82
2023/04/06 01:53:09;;;;;;;24.37;17.93;;;;;;;;;;4372356;32;318544;-80
2023/04/06 01:55:35;;;;;;;22.03;16.53;;;;;;;;;;4358167;32;318159;-82
2023/04/06 01:58:03;;;;;;;23.47;15.70;;;;;;;;;;4367435;32;318129;-80
2023/04/06 02:00:30;;;;;;;21.80;14.73;;;;;;;;;;4358532;32;318128;-84
2023/04/06 02:02:57;;;;;;;21.77;14.83;;;;;;;;;;4367456;32;317522;-81
2023/04/06 02:05:24;;;;;;;22.53;15.97;;;;;;;;;;4355693;32;340095;-80
2023/04/06 02:07:51;;;;;;;21.30;14.87;;;;;;;;;;4367628;32;317646;-80
2023/04/06 02:10:18;;;;;;;22.37;14.83;;;;;;;;;;4379309;32;317682;-80
2023/04/06 02:12:45;;;;;;;19.90;15.30;;;;;;;;;;4373961;32;355525;-79
2023/04/06 02:15:14;;;;;;;18.57;14.80;;;;;;;;;;4384328;32;318288;-79
2023/04/06 02:17:41;;;;;;;20.57;16.07;;;;;;;;;;4374325;32;317471;-80
2023/04/06 02:20:08;;;;;;;19.83;14.97;;;;;;;;;;4383183;32;318293;-83
2023/04/06 02:22:36;;;;;;;23.53;16.50;;;;;;;;;;4372138;32;318343;-80
2023/04/06 02:25:03;;;;;;;24.43;16.33;;;;;;;;;;4362804;32;318291;-80
2023/04/06 02:27:30;;;;;;;19.50;16.43;;;;;;;;;;4342739;32;339688;-80
2023/04/06 02:29:57;;;;;;;27.67;18.03;;;;;;;;;;4353453;32;318445;-80
2023/04/06 02:32:25;;;;;;;22.47;17.17;;;;;;;;;;4356806;32;317578;-82
2023/04/06 02:34:53;;;;;;;18.93;14.13;;;;;;;;;;4367760;32;317498;-80
2023/04/06 02:37:19;;;;;;;17.10;14.20;;;;;;;;;;4367386;32;318149;-80
2023/04/06 02:39:46;;;;;;;21.47;14.43;;;;;;;;;;4356362;32;317697;-80
2023/04/06 02:42:15;;;;;;;17.77;12.13;;;;;;;;;;4365953;32;318869;-80
2023/04/06 02:44:44;;;;;;;14.20;12.33;;;;;;;;;;4358243;32;318301;-80
2023/04/06 02:47:11;;;;;;;14.60;12.33;;;;;;;;;;4367800;32;317628;-81
2023/04/06 02:49:39;;;;;;;14.17;12.60;;;;;;;;;;4359065;32;318317;-80
2023/04/06 02:52:06;;;;;;;16.77;13.53;;;;;;;;;;4357096;32;317490;-79
2023/04/06 02:54:33;;;;;;;18.87;14.60;;;;;;;;;;4343019;32;318577;-80
2023/04/06 02:56:59;;;;;;;19.30;15.37;;;;;;;;;;4352947;32;318368;-81
2023/04/06 02:59:26;;;;;;;15.93;13.47;;;;;;;;;;4341694;32;317383;-81
2023/04/06 03:01:53;;;;;;;14.07;12.57;;;;;;;;;;4351555;32;317989;-84
2023/04/06 03:04:22;;;;;;;13.27;11.80;;;;;;;;;;4353666;32;318689;-80
2023/04/06 03:06:50;;;;;;;16.33;13.27;;;;;;;;;;4341471;32;417968;-84
2023/04/06 03:09:17;;;;;;;16.83;11.93;;;;;;;;;;4362298;32;318122;-80
2023/04/06 03:11:44;;;;;;;14.23;12.73;;;;;;;;;;4372817;32;317421;-80
2023/04/06 03:14:11;;;;;;;14.43;12.30;;;;;;;;;;4382770;32;318564;-81
2023/04/06 03:16:38;;;;;;;15.33;13.00;;;;;;;;;;4370475;32;352252;-81
2023/04/06 03:19:05;;;;;;;14.83;12.50;;;;;;;;;;4384001;32;322664;-80
2023/04/06 03:21:32;;;;;;;17.00;14.53;;;;;;;;;;4369233;32;318100;-80
2023/04/06 03:24:00;;;;;;;21.93;13.93;;;;;;;;;;4371502;32;318274;-82
2023/04/06 03:26:27;;;;;;;17.30;13.37;;;;;;;;;;4375618;32;317630;-81
2023/04/06 03:28:53;;;;;;;18.10;13.87;;;;;;;;;;4383269;32;316891;-79
2023/04/06 03:31:20;;;;;;;18.13;14.97;;;;;;;;;;4380676;32;318295;-80
2023/04/06 03:33:47;;;;;;;18.20;14.80;;;;;;;;;;4365601;32;318081;-80
2023/04/06 03:36:14;;;;;;;25.03;16.23;;;;;;;;;;4369271;32;317498;-81
2023/04/06 03:38:41;;;;;;;23.03;15.77;;;;;;;;;;4358554;32;317616;-82
2023/04/06 03:41:09;;;;;;;24.40;17.80;;;;;;;;;;4367324;32;317501;-81
2023/04/06 03:43:36;;;;;;;25.20;17.00;;;;;;;;;;4361053;32;318578;-81
2023/04/06 03:46:03;;;;;;;24.10;17.07;;;;;;;;;;4371007;32;317489;-81
2023/04/06 03:48:30;;;;;;;21.33;17.00;;;;;;;;;;4361788;32;317703;-80
2023/04/06 03:50:57;;;;;;;23.50;18.73;;;;;;;;;;4371583;32;317568;-81
2023/04/06 03:53:23;;;;;;;17.77;14.13;;;;;;;;;;4361798;32;318013;-82
2023/04/06 03:55:50;;;;;;;20.23;16.27;;;;;;;;;;4369834;32;318207;-79
2023/04/06 03:58:18;;;;;;;21.00;15.67;;;;;;;;;;4368765;32;351990;-80
2023/04/06 04:00:45;;;;;;;19.17;14.33;;;;;;;;;;4358953;32;317737;-80
2023/04/06 04:03:12;;;;;;;19.57;14.60;;;;;;;;;;4369161;32;334776;-83
2023/04/06 04:05:39;;;;;;;20.37;15.83;;;;;;;;;;4360013;32;319338;-82
2023/04/06 04:08:06;;;;;;;22.20;16.83;;;;;;;;;;4369723;32;318282;-82
2023/04/06 04:10:33;;;;;;;18.87;15.30;;;;;;;;;;4372362;32;317599;-81
2023/04/06 04:13:00;;;;;;;18.20;14.20;;;;;;;;;;4385092;32;317766;-80
2023/04/06 04:15:28;;;;;;;16.73;13.83;;;;;;;;;;4374761;32;318159;-80
2023/04/06 04:17:55;;;;;;;16.47;13.93;;;;;;;;;;4375720;32;318331;-80
2023/04/06 04:20:21;;;;;;;17.07;13.23;;;;;;;;;;4368410;32;318436;-80
2023/04/06 04:22:48;;;;;;;15.53;13.70;;;;;;;;;;4355647;32;419332;-80
2023/04/06 04:25:15;;;;;;;20.23;14.33;;;;;;;;;;4368529;32;335883;-79
2023/04/06 04:27:42;;;;;;;16.03;13.87;;;;;;;;;;4359970;32;318300;-78
2023/04/06 04:30:09;;;;;;;16.63;14.30;;;;;;;;;;4367581;32;318357;-78
2023/04/06 04:32:38;;;;;;;59.00;36.77;;;;;;;;;;4343456;32;318503;-78
2023/04/06 04:35:05;;;;;;;22.87;17.77;;;;;;;;;;4354772;32;317605;-79
2023/04/06 04:37:34;;;;;;;23.40;17.30;;;;;;;;;;4358339;32;358585;-80
2023/04/06 04:40:01;;;;;;;20.70;13.90;;;;;;;;;;4368595;32;317674;-80
2023/04/06 04:42:28;;;;;;;23.97;15.67;;;;;;;;;;4352759;32;318046;-86
2023/04/06 04:44:54;;;;;;;29.33;19.93;;;;;;;;;;4367145;32;318108;-80
2023/04/06 04:47:21;;;;;;;33.60;24.67;;;;;;;;;;4351049;32;318372;-83
2023/04/06 04:49:50;;;;;;;44.77;28.00;;;;;;;;;;4340305;32;415273;-81
2023/04/06 04:52:16;;;;;;;32.83;25.03;;;;;;;;;;4352893;32;317656;-80
2023/04/06 04:54:44;;;;;;;46.23;24.13;;;;;;;;;;4340390;32;318334;-80
2023/04/06 04:57:11;;;;;;;40.83;23.50;;;;;;;;;;4353749;32;318203;-80
2023/04/06 04:59:37;;;;;;;42.13;23.67;;;;;;;;;;4342745;32;317503;-80
2023/04/06 05:02:04;;;;;;;34.47;25.07;;;;;;;;;;4352292;32;318776;-82
2023/04/06 05:04:31;;;;;;;23.10;17.87;;;;;;;;;;4347702;32;318108;-80
2023/04/06 05:07:07;;;;;;;29.60;21.17;;;;;;;;;;4353163;32;318320;-82
2023/04/06 05:09:33;;;;;;;39.20;22.60;;;;;;;;;;4355069;32;318671;-80
2023/04/06 05:12:00;;;;;;;24.17;18.87;;;;;;;;;;4382098;32;318619;-79
2023/04/06 05:14:29;;;;;;;20.97;16.90;;;;;;;;;;4361633;32;317617;-80
2023/04/06 05:16:56;;;;;;;20.10;16.17;;;;;;;;;;4368102;32;318269;-79
2023/04/06 05:19:25;;;;;;;18.80;12.57;;;;;;;;;;4372079;32;318085;-83
2023/04/06 05:21:52;;;;;;;21.23;13.47;;;;;;;;;;4355827;32;417531;-86
2023/04/06 05:24:21;;;;;;;18.70;13.23;;;;;;;;;;4366798;32;318271;-79
2023/04/06 05:26:49;;;;;;;20.47;14.80;;;;;;;;;;4356815;32;331699;-79
2023/04/06 05:29:16;;;;;;;22.50;14.93;;;;;;;;;;4368851;32;318580;-80
2023/04/06 05:31:43;;;;;;;19.30;13.10;;;;;;;;;;4346640;32;317505;-80
2023/04/06 05:34:10;;;;;;;12.73;9.57;;;;;;;;;;4350256;32;343262;-81
2023/04/06 05:36:37;;;;;;;9.30;8.30;;;;;;;;;;4352926;32;316941;-83
2023/04/06 05:39:04;;;;;;;8.50;7.63;;;;;;;;;;4368019;32;315377;-84
2023/04/06 05:41:32;;;;;;;9.17;8.07;;;;;;;;;;4358932;32;316511;-82
2023/04/06 05:44:01;;;;;;;8.67;7.77;;;;;;;;;;4368761;32;316103;-82
2023/04/06 05:46:29;;;;;;;8.73;6.97;;;;;;;;;;4361583;32;315774;-83
2023/04/06 05:48:56;;;;;;;10.13;7.90;;;;;;;;;;4376361;32;316349;-83
2023/04/06 05:51:24;;;;;;;11.30;7.93;;;;;;;;;;4366310;32;316655;-84
2023/04/06 05:53:51;;;;;;;14.40;10.70;;;;;;;;;;4366981;32;316797;-83
2023/04/06 05:56:18;;;;;;;14.87;10.23;;;;;;;;;;4369229;32;326053;-80
2023/04/06 05:58:47;;;;;;;74.10;40.07;;;;;;;;;;4362224;32;333781;-84
2023/04/06 06:01:14;;;;;;;21.57;14.80;;;;;;;;;;4377232;32;318048;-84
2023/04/06 06:03:41;;;;;;;10.10;8.40;;;;;;;;;;4359162;32;318785;-87
2023/04/06 06:06:08;;;;;;;11.00;9.13;;;;;;;;;;4368036;32;317935;-84
2023/04/06 06:08:35;;;;;;;11.83;9.57;;;;;;;;;;4358351;32;316945;-85
2023/04/06 06:11:03;;;;;;;8.20;6.97;;;;;;;;;;4370050;32;316591;-85
2023/04/06 06:13:30;;;;;;;8.47;6.87;;;;;;;;;;4356885;32;316144;-82
2023/04/06 06:15:58;;;;;;;10.47;7.97;;;;;;;;;;4357544;32;316300;-84
2023/04/06 06:18:25;;;;;;;6.93;6.23;;;;;;;;;;4348099;32;337452;-83
2023/04/06 06:20:52;;;;;;;7.93;6.93;;;;;;;;;;4365753;32;315509;-82
2023/04/06 06:23:19;;;;;;;8.13;7.07;;;;;;;;;;4353597;32;316104;-84
2023/04/06 06:25:45;;;;;;;8.90;6.93;;;;;;;;;;4340205;32;316221;-82
2023/04/06 06:28:12;;;;;;;7.90;7.10;;;;;;;;;;4350139;32;316334;-79
2023/04/06 06:30:42;;;;;;;9.63;7.97;;;;;;;;;;4344685;32;342973;-79
2023/04/06 06:51:36;;;;;;;11.77;10.10;;;;;;;;;;4441576;31;20536;-85
2023/04/06 06:54:03;;;;;;;10.37;6.90;;;;;;;;;;4426004;32;317358;-79
2023/04/06 06:56:30;;;;;;;12.87;8.87;;;;;;;;;;4414462;32;348178;-77
2023/04/06 06:58:57;;;;;;;9.00;7.17;;;;;;;;;;4425822;32;317324;-79
2023/04/06 07:01:24;;;;;;;8.47;6.87;;;;;;;;;;4417215;32;316163;-84
2023/04/06 07:03:53;;;;;;;7.10;6.40;;;;;;;;;;4425883;32;316213;-80
2023/04/06 07:06:21;;;;;;;12.70;7.53;;;;;;;;;;4424211;32;326651;-79
2023/04/06 07:08:49;;;;;;;14.97;7.77;;;;;;;;;;4413866;32;317407;-81
2023/04/06 07:11:16;;;;;;;18.77;12.97;;;;;;;;;;4424493;32;317948;-81
2023/04/06 07:13:43;;;;;;;15.23;9.33;;;;;;;;;;4413764;32;318250;-77
2023/04/06 07:16:10;;;;;;;12.47;10.60;;;;;;;;;;4424189;32;317233;-79
2023/04/06 07:18:37;;;;;;;15.20;11.47;;;;;;;;;;4414687;32;318457;-85
2023/04/06 07:21:04;;;;;;;17.87;9.30;;;;;;;;;;4424616;32;318242;-78
2023/04/06 07:23:31;;;;;;;10.23;8.53;;;;;;;;;;4418046;32;317289;-79
2023/04/06 07:25:59;;;;;;;9.90;8.10;;;;;;;;;;4441158;32;316520;-83
2023/04/06 07:28:29;;;;;;;16.87;10.50;;;;;;;;;;4434234;32;315970;-82
2023/04/06 07:30:56;;;;;;;9.33;7.53;;;;;;;;;;4437166;32;317581;-81
2023/04/06 07:33:23;;;;;;;8.33;7.40;;;;;;;;;;4439341;32;316356;-80
2023/04/06 07:35:52;;;;;;;9.50;7.67;;;;;;;;;;4408096;32;415115;-79
2023/04/06 07:38:19;;;;;;;10.70;8.73;;;;;;;;;;4410500;32;316378;-85
2023/04/06 07:40:47;;;;;;;10.90;8.50;;;;;;;;;;4383879;32;317454;-82
2023/04/06 07:43:15;;;;;;;10.93;7.47;;;;;;;;;;4399411;32;317509;-83
2023/04/06 07:45:42;;;;;;;14.80;10.90;;;;;;;;;;4399436;32;317736;-82
2023/04/06 07:48:09;;;;;;;9.00;6.93;;;;;;;;;;4407645;32;318483;-87
2023/04/06 07:50:40;;;;;;;16.47;8.07;;;;;;;;;;4375358;32;316426;-86
2023/04/06 07:53:10;;;;;;;9.60;8.27;;;;;;;;;;4338608;32;317334;-83
2023/04/06 07:55:37;;;;;;;16.23;11.73;;;;;;;;;;4331320;32;316066;-87
2023/04/06 07:58:04;;;;;;;10.23;9.03;;;;;;;;;;4391345;32;317535;-85
2023/04/06 08:00:32;;;;;;;10.90;8.50;;;;;;;;;;4353885;32;317859;-88
2023/04/06 08:02:59;;;;;;;12.97;8.97;;;;;;;;;;4331781;32;317693;-86
2023/04/06 08:05:26;;;;;;;10.77;8.63;;;;;;;;;;4327052;32;317176;-89
2023/04/06 08:07:53;;;;;;;15.53;9.00;;;;;;;;;;4336032;32;317374;-89
2023/04/06 08:10:20;;;;;;;16.60;9.00;;;;;;;;;;4336505;32;317301;-85
2023/04/06 08:12:47;;;;;;;12.93;8.37;;;;;;;;;;4325874;32;317049;-81
2023/04/06 08:15:14;;;;;;;13.70;9.10;;;;;;;;;;4335828;32;317282;-92
2023/04/06 08:17:47;;;;;;;13.13;8.13;;;;;;;;;;4324040;32;345178;-91
2023/04/06 08:20:14;;;;;;;11.23;8.33;;;;;;;;;;4336757;32;317320;-85
2023/04/06 08:22:45;;;;;;;9.40;7.63;;;;;;;;;;4326380;32;318597;-81
2023/04/06 08:25:12;;;;;;;9.60;7.63;;;;;;;;;;4336061;32;317393;-84
2023/04/06 08:27:39;;;;;;;10.40;6.83;;;;;;;;;;4326717;32;317234;-80
2023/04/06 08:30:06;;;;;;;9.07;6.77;;;;;;;;;;4336941;32;318267;-87
2023/04/06 08:32:33;;;;;;;8.17;6.67;;;;;;;;;;4326967;32;316721;-85
2023/04/06 08:35:03;;;;;;;8.70;6.53;;;;;;;;;;4336175;32;317263;-79
2023/04/06 08:37:30;;;;;;;14.10;9.40;;;;;;;;;;4325637;32;317128;-86
2023/04/06 08:39:58;;;;;;;12.53;9.00;;;;;;;;;;4335150;32;318590;-87
2023/04/06 08:42:29;;;;;;;13.80;10.07;;;;;;;;;;4329203;32;318040;-89
2023/04/06 08:44:56;;;;;;;10.47;8.03;;;;;;;;;;4321376;32;319521;-81
2023/04/06 08:47:23;;;;;;;12.47;9.60;;;;;;;;;;4320584;32;317543;-83
2023/04/06 08:49:51;;;;;;;11.20;8.03;;;;;;;;;;4351706;32;417815;-83
2023/04/06 08:52:19;;;;;;;7.93;6.90;;;;;;;;;;4335406;32;318180;-86
2023/04/06 08:54:46;;;;;;;11.97;8.60;;;;;;;;;;4325941;32;316900;-80
2023/04/06 08:57:14;;;;;;;11.53;8.70;;;;;;;;;;4336072;32;317892;-83
2023/04/06 08:59:41;;;;;;;11.27;8.87;;;;;;;;;;4325286;32;318603;-83
2023/04/06 09:02:16;;;;;;;20.53;6.90;;;;;;;;;;4335546;32;318553;-83
2023/04/06 09:04:44;;;;;;;6.00;5.27;;;;;;;;;;4326129;32;318472;-81
2023/04/06 09:07:11;;;;;;;6.87;6.00;;;;;;;;;;4335127;32;316882;-80
2023/04/06 09:09:43;;;;;;;6.27;5.67;;;;;;;;;;4324784;32;317326;-82
2023/04/06 09:12:12;;;;;;;8.27;6.80;;;;;;;;;;4345082;32;356188;-83
2023/04/06 09:14:40;;;;;;;11.47;8.93;;;;;;;;;;4354128;32;328274;-83
2023/04/06 09:17:07;;;;;;;7.30;6.07;;;;;;;;;;4335546;32;318745;-85
2023/04/06 09:19:34;;;;;;;8.27;6.97;;;;;;;;;;4325255;32;317537;-82
2023/04/06 09:22:04;;;;;;;5.70;5.20;;;;;;;;;;4322181;32;317118;-83
2023/04/06 09:24:43;;;;;;;8.13;6.10;;;;;;;;;;4311927;32;317525;-81
2023/04/06 09:27:11;;;;;;;5.73;5.03;;;;;;;;;;4338365;32;317357;-83
2023/04/06 09:29:37;;;;;;;9.20;7.53;;;;;;;;;;4366522;32;317197;-81
2023/04/06 09:32:07;;;;;;;8.80;6.30;;;;;;;;;;4321248;32;317464;-85
2023/04/06 09:34:34;;;;;;;9.27;6.97;;;;;;;;;;4309904;32;338370;-80
2023/04/06 09:37:01;;;;;;;11.73;8.23;;;;;;;;;;4320906;32;317182;-82
2023/04/06 09:39:28;;;;;;;8.00;6.77;;;;;;;;;;4308871;32;318714;-80
2023/04/06 09:41:56;;;;;;;6.63;5.27;;;;;;;;;;4319774;32;355226;-84
2023/04/06 09:44:24;;;;;;;7.10;6.03;;;;;;;;;;4320642;32;316596;-82
2023/04/06 09:46:55;;;;;;;5.83;5.03;;;;;;;;;;4306359;32;416276;-82
2023/04/06 09:49:23;;;;;;;7.87;6.13;;;;;;;;;;4319537;32;317239;-83
2023/04/06 09:51:57;;;;;;;6.47;5.77;;;;;;;;;;4318810;32;416639;-83
2023/04/06 09:54:25;;;;;;;10.87;6.60;;;;;;;;;;4336008;32;317448;-83
2023/04/06 09:56:57;;;;;;;6.20;5.53;;;;;;;;;;4322395;32;418587;-83
2023/04/06 09:59:37;;;;;;;7.07;6.37;;;;;;;;;;4335386;32;317138;-84
2023/04/06 10:02:06;;;;;;;7.57;6.37;;;;;;;;;;4321917;32;416762;-84
2023/04/06 10:04:41;;;;;;;12.00;10.00;;;;;;;;;;4325505;32;317632;-83
2023/04/06 10:07:08;;;;;;;10.90;9.30;;;;;;;;;;4335548;32;319405;-81
2023/04/06 10:09:38;;;;;;;8.67;7.77;;;;;;;;;;4325677;32;318031;-83
2023/04/06 10:12:05;;;;;;;10.07;8.73;;;;;;;;;;4335407;32;317149;-83
2023/04/06 10:14:36;;;;;;;8.43;7.20;;;;;;;;;;4324241;32;318466;-81
2023/04/06 10:17:04;;;;;;;9.10;5.83;;;;;;;;;;4335295;32;317455;-78
2023/04/06 10:19:40;;;;;;;10.17;7.03;;;;;;;;;;4325524;32;317236;-84
2023/04/06 10:22:11;;;;;;;10.13;8.30;;;;;;;;;;4335208;32;318252;-77
2023/04/06 10:24:38;;;;;;;11.10;8.07;;;;;;;;;;4325342;32;323576;-77
2023/04/06 10:27:08;;;;;;;6.90;5.43;;;;;;;;;;4335212;32;318505;-77
2023/04/06 10:29:48;;;;;;;7.47;6.73;;;;;;;;;;4324660;32;317501;-81
2023/04/06 10:32:15;;;;;;;8.67;7.27;;;;;;;;;;4334479;32;317204;-81
2023/04/06 10:34:42;;;;;;;8.33;5.90;;;;;;;;;;4323095;32;317279;-76
2023/04/06 10:37:14;;;;;;;10.70;7.03;;;;;;;;;;4333554;32;317744;-84
2023/04/06 10:39:48;;;;;;;7.53;5.77;;;;;;;;;;4325435;32;318852;-86
2023/04/06 10:42:15;;;;;;;5.83;5.23;;;;;;;;;;4335109;32;316599;-81
2023/04/06 10:44:50;;;;;;;7.63;6.70;;;;;;;;;;4318837;32;317243;-83
2023/04/06 10:47:18;;;;;;;9.07;7.27;;;;;;;;;;4320337;32;317356;-83
2023/04/06 10:49:45;;;;;;;14.03;8.97;;;;;;;;;;4309260;32;317205;-83
2023/04/06 10:52:12;;;;;;;8.53;6.67;;;;;;;;;;4332420;32;318134;-85
2023/04/06 10:54:43;;;;;;;41.37;22.80;;;;;;;;;;4324632;32;317716;-78
2023/04/06 10:57:10;;;;;;;20.23;14.53;;;;;;;;;;4334841;32;319269;-82
2023/04/06 10:59:37;;;;;;;9.33;7.47;;;;;;;;;;4325032;32;319433;-84
2023/04/06 11:02:06;;;;;;;7.73;6.73;;;;;;;;;;4333605;32;317183;-84
2023/04/06 11:04:33;;;;;;;6.60;5.93;;;;;;;;;;4325633;32;317424;-82
2023/04/06 11:06:59;;;;;;;13.50;8.50;;;;;;;;;;4335235;32;317041;-84
2023/04/06 11:09:27;;;;;;;8.83;6.50;;;;;;;;;;4325250;32;318013;-82
2023/04/06 11:11:55;;;;;;;8.80;6.37;;;;;;;;;;4386464;32;317288;-82
2023/04/06 11:14:22;;;;;;;10.00;7.80;;;;;;;;;;4337846;32;317157;-82
2023/04/06 11:16:50;;;;;;;8.73;7.17;;;;;;;;;;4333739;32;317958;-81
2023/04/06 11:19:18;;;;;;;11.03;8.17;;;;;;;;;;4352799;32;316723;-79
2023/04/06 11:21:48;;;;;;;11.17;9.30;;;;;;;;;;4339507;32;318096;-82
2023/04/06 11:24:16;;;;;;;12.30;9.87;;;;;;;;;;4343842;32;317792;-84
2023/04/06 11:26:45;;;;;;;10.07;8.10;;;;;;;;;;4331673;32;318211;-86
2023/04/06 11:29:13;;;;;;;19.73;14.83;;;;;;;;;;4337059;32;317607;-82
2023/04/06 11:31:41;;;;;;;12.43;11.13;;;;;;;;;;4326999;32;319268;-82
2023/04/06 11:34:19;;;;;;;15.33;11.13;;;;;;;;;;4336513;32;319666;-82
2023/04/06 11:36:48;;;;;;;15.17;10.93;;;;;;;;;;4316494;32;319779;-81
2023/04/06 11:39:20;;;;;;;12.10;10.53;;;;;;;;;;4322152;32;319230;-82
2023/04/06 11:41:48;;;;;;;11.77;8.87;;;;;;;;;;4313504;32;319259;-80
2023/04/06 11:44:15;;;;;;;154.20;42.03;;;;;;;;;;4322985;32;318181;-83
2023/04/06 11:46:52;;;;;;;14.53;10.90;;;;;;;;;;4312524;32;320476;-83
2023/04/06 11:49:20;;;;;;;25.07;14.40;;;;;;;;;;4336670;32;319331;-81
2023/04/06 11:51:47;;;;;;;18.20;13.93;;;;;;;;;;4326875;32;319299;-79
2023/04/06 11:54:14;;;;;;;16.37;10.77;;;;;;;;;;4337793;32;319567;-77
2023/04/06 11:56:41;;;;;;;11.53;9.70;;;;;;;;;;4327730;32;319408;-78
2023/04/06 11:59:07;;;;;;;9.33;7.23;;;;;;;;;;4337249;32;318280;-80
2023/04/06 12:01:34;;;;;;;11.50;7.77;;;;;;;;;;4327645;32;317006;-80
2023/04/06 12:04:02;;;;;;;10.00;8.57;;;;;;;;;;4336062;32;318396;-79
2023/04/06 12:06:30;;;;;;;20.20;8.20;;;;;;;;;;4326434;32;357279;-79
2023/04/06 12:08:57;;;;;;;9.43;7.30;;;;;;;;;;4336349;32;318457;-81
2023/04/06 12:11:24;;;;;;;10.20;7.13;;;;;;;;;;4337307;32;317360;-81
2023/04/06 12:13:51;;;;;;;33.17;24.07;;;;;;;;;;4324805;32;417326;-80
2023/04/06 12:16:19;;;;;;;47.03;27.77;;;;;;;;;;4336952;32;319215;-79
2023/04/06 12:18:45;;;;;;;27.87;17.23;;;;;;;;;;4327469;32;319505;-81
2023/04/06 12:21:12;;;;;;;20.00;10.83;;;;;;;;;;4336267;32;318115;-81
2023/04/06 12:23:40;;;;;;;13.83;9.13;;;;;;;;;;4326481;32;318256;-81
2023/04/06 12:26:07;;;;;;;8.63;7.73;;;;;;;;;;4335722;32;318423;-81
2023/04/06 12:28:36;;;;;;;11.47;8.80;;;;;;;;;;4326592;32;317295;-81
2023/04/06 12:31:03;;;;;;;12.30;8.23;;;;;;;;;;4336200;32;318256;-78
2023/04/06 12:33:30;;;;;;;10.97;8.17;;;;;;;;;;4325733;32;341748;-80
2023/04/06 12:35:57;;;;;;;10.77;8.60;;;;;;;;;;4336007;32;343965;-81
2023/04/06 12:38:24;;;;;;;10.73;7.73;;;;;;;;;;4392530;32;317553;-81
2023/04/06 12:40:52;;;;;;;11.77;8.10;;;;;;;;;;4322290;32;417031;-81
2023/04/06 12:43:19;;;;;;;9.57;8.17;;;;;;;;;;4335685;32;317545;-79
2023/04/06 12:45:46;;;;;;;15.40;7.73;;;;;;;;;;4313631;32;317520;-82
2023/04/06 12:48:13;;;;;;;10.07;8.97;;;;;;;;;;4322165;32;318415;-80
2023/04/06 12:50:39;;;;;;;16.17;10.20;;;;;;;;;;4315656;32;318243;-81
2023/04/06 12:53:06;;;;;;;13.17;10.17;;;;;;;;;;4335312;32;319140;-82
2023/04/06 12:55:35;;;;;;;18.90;10.43;;;;;;;;;;4325528;32;358500;-80
2023/04/06 12:58:03;;;;;;;14.43;10.57;;;;;;;;;;4336342;32;318854;-80
2023/04/06 13:00:30;;;;;;;13.43;9.93;;;;;;;;;;4343403;32;352823;-80
2023/04/06 13:02:57;;;;;;;10.97;8.27;;;;;;;;;;4357708;32;318306;-81
2023/04/06 13:05:24;;;;;;;13.57;10.67;;;;;;;;;;4336641;32;318234;-80
2023/04/06 13:07:50;;;;;;;12.87;10.50;;;;;;;;;;4323238;32;418839;-81
2023/04/06 13:10:18;;;;;;;11.03;9.47;;;;;;;;;;4335137;32;319250;-80
2023/04/06 13:12:44;;;;;;;10.60;8.93;;;;;;;;;;4327243;32;317468;-81
2023/04/06 13:15:13;;;;;;;11.23;8.97;;;;;;;;;;4335112;32;318426;-79
2023/04/06 13:17:40;;;;;;;16.80;10.97;;;;;;;;;;4326982;32;318128;-80
2023/04/06 13:20:08;;;;;;;11.60;10.03;;;;;;;;;;4335413;32;319768;-79
2023/04/06 13:22:35;;;;;;;13.20;11.00;;;;;;;;;;4375937;32;318941;-81
2023/04/06 13:25:01;;;;;;;13.70;10.93;;;;;;;;;;4336597;32;319277;-79
2023/04/06 13:27:28;;;;;;;13.50;10.63;;;;;;;;;;4325755;32;319193;-78
2023/04/06 13:29:56;;;;;;;14.40;9.80;;;;;;;;;;4334743;32;318574;-81
2023/04/06 13:32:25;;;;;;;11.97;9.33;;;;;;;;;;4335541;32;318388;-77
2023/04/06 13:34:55;;;;;;;12.40;9.67;;;;;;;;;;4323726;32;419167;-82
2023/04/06 13:37:22;;;;;;;12.40;9.70;;;;;;;;;;4321774;32;318468;-82
2023/04/06 13:39:48;;;;;;;19.63;13.13;;;;;;;;;;4316577;32;318971;-79
2023/04/06 13:42:15;;;;;;;21.30;11.17;;;;;;;;;;4335218;32;319126;-78
2023/04/06 13:44:42;;;;;;;21.60;9.03;;;;;;;;;;4319028;32;319184;-79
2023/04/06 13:47:09;;;;;;;14.70;9.13;;;;;;;;;;4319372;32;348363;-79
2023/04/06 13:49:37;;;;;;;11.43;9.20;;;;;;;;;;4309788;32;318257;-82
2023/04/06 13:52:04;;;;;;;12.47;8.77;;;;;;;;;;4329860;32;353356;-79
2023/04/06 13:54:31;;;;;;;13.97;9.83;;;;;;;;;;4323973;32;318197;-82
2023/04/06 13:56:58;;;;;;;14.57;9.43;;;;;;;;;;4334398;32;318369;-78
2023/04/06 13:59:25;;;;;;;18.27;10.80;;;;;;;;;;4324190;32;318195;-82
2023/04/06 14:01:51;;;;;;;13.17;10.20;;;;;;;;;;4334768;32;319360;-79
2023/04/06 14:04:18;;;;;;;13.37;9.20;;;;;;;;;;4334953;32;319600;-81
2023/04/06 14:06:47;;;;;;;14.83;9.03;;;;;;;;;;4326132;32;317599;-82
2023/04/06 14:09:14;;;;;;;17.07;9.33;;;;;;;;;;4336129;32;318259;-82
2023/04/06 14:11:41;;;;;;;12.23;8.47;;;;;;;;;;4326879;32;318211;-84
2023/04/06 14:14:07;;;;;;;14.47;10.43;;;;;;;;;;4335444;32;318090;-77
2023/04/06 14:16:34;;;;;;;15.77;11.20;;;;;;;;;;4324865;32;319277;-84
2023/04/06 14:19:01;;;;;;;21.97;11.37;;;;;;;;;;4321027;32;319373;-81
2023/04/06 14:21:28;;;;;;;14.83;10.67;;;;;;;;;;4311588;32;319194;-79
2023/04/06 14:23:56;;;;;;;11.47;8.40;;;;;;;;;;4321449;32;319514;-80
2023/04/06 14:26:23;;;;;;;10.60;8.13;;;;;;;;;;4321296;32;318239;-78
2023/04/06 14:28:50;;;;;;;11.67;7.37;;;;;;;;;;4308317;32;417238;-78
2023/04/06 14:31:17;;;;;;;14.63;9.83;;;;;;;;;;4321094;32;318181;-84
2023/04/06 14:33:43;;;;;;;27.70;17.23;;;;;;;;;;4310532;32;318092;-84